createdAt,value
2023-05-25T00:00:39.930Z,28.70
2023-05-25T00:02:47.520Z,28.70
2023-05-25T00:04:50.537Z,28.80
2023-05-25T00:06:53.373Z,28.90
2023-05-25T00:08:56.554Z,28.90
2023-05-25T00:10:59.462Z,28.80
2023-05-25T00:13:02.376Z,28.90
2023-05-25T00:15:05.254Z,28.90
2023-05-25T00:17:08.381Z,29.00
2023-05-25T00:19:11.486Z,29.00
2023-05-25T00:21:14.307Z,29.10
2023-05-25T00:23:17.018Z,29.10
2023-05-25T00:25:19.717Z,29.20
2023-05-25T00:27:22.708Z,29.30
2023-05-25T00:29:25.527Z,29.40
2023-05-25T00:31:28.684Z,29.50
2023-05-25T00:33:35.906Z,29.60
2023-05-25T00:35:38.685Z,29.60
2023-05-25T00:37:41.416Z,29.60
2023-05-25T00:39:44.454Z,29.70
2023-05-25T00:41:47.123Z,29.70
2023-05-25T00:43:50.800Z,29.80
2023-05-25T00:45:53.825Z,29.90
2023-05-25T00:47:56.881Z,29.90
2023-05-25T00:49:59.901Z,29.90
2023-05-25T00:52:02.923Z,29.90
2023-05-25T00:54:05.678Z,29.90
2023-05-25T00:56:08.759Z,29.90
2023-05-25T00:58:14.901Z,29.80
2023-05-25T01:00:17.616Z,29.80
2023-05-25T01:02:20.787Z,29.80
2023-05-25T01:04:23.591Z,29.90
2023-05-25T01:06:26.446Z,29.80
2023-05-25T01:08:29.877Z,30.00
2023-05-25T01:10:32.614Z,30.00
2023-05-25T01:12:35.867Z,30.10
2023-05-25T01:14:38.827Z,30.20
2023-05-25T01:16:41.721Z,30.30
2023-05-25T01:18:44.665Z,30.40
2023-05-25T01:20:47.779Z,30.50
2023-05-25T01:22:50.604Z,30.40
2023-05-25T01:24:53.352Z,30.40
2023-05-25T01:26:56.090Z,30.40
2023-05-25T01:29:00.118Z,30.40
2023-05-25T01:31:02.752Z,30.40
2023-05-25T01:33:05.788Z,30.50
2023-05-25T01:35:09.496Z,30.50
2023-05-25T01:37:12.242Z,30.70
2023-05-25T01:39:16.892Z,30.70
2023-05-25T01:41:19.944Z,30.80
2023-05-25T01:43:22.684Z,30.90
2023-05-25T01:45:25.870Z,31.00
2023-05-25T01:47:28.745Z,31.10
2023-05-25T01:49:33.948Z,31.00
2023-05-25T01:51:37.719Z,31.00
2023-05-25T01:53:40.466Z,31.20
2023-05-25T01:55:43.383Z,31.30
2023-05-25T01:57:46.360Z,31.40
2023-05-25T01:59:51.230Z,31.40
2023-05-25T02:01:54.004Z,31.50
2023-05-25T02:03:56.878Z,31.60
2023-05-25T02:05:59.949Z,31.70
2023-05-25T02:08:02.787Z,31.60
2023-05-25T02:10:05.715Z,31.60
2023-05-25T02:12:08.527Z,31.50
2023-05-25T02:14:27.986Z,31.60
2023-05-25T02:16:31.448Z,31.60
2023-05-25T02:18:38.659Z,31.70
2023-05-25T02:20:41.579Z,31.50
2023-05-25T02:22:45.308Z,31.70
2023-05-25T02:24:50.492Z,31.70
2023-05-25T02:26:56.438Z,31.80
2023-05-25T02:29:02.252Z,31.90
2023-05-25T02:31:06.240Z,31.90
2023-05-25T02:33:19.251Z,31.80
2023-05-25T02:35:22.252Z,31.90
2023-05-25T02:37:34.296Z,32.00
2023-05-25T02:39:39.574Z,31.80
2023-05-25T02:41:51.472Z,31.80
2023-05-25T02:46:12.904Z,31.70
2023-05-25T02:48:17.533Z,31.70
2023-05-25T02:50:24.712Z,32.00
2023-05-25T02:52:29.575Z,32.20
2023-05-25T02:54:33.185Z,32.10
2023-05-25T02:56:39.537Z,32.00
2023-05-25T02:58:51.527Z,32.10
2023-05-25T03:00:54.838Z,32.10
2023-05-25T03:02:59.022Z,32.00
2023-05-25T03:05:04.937Z,32.00
2023-05-25T03:07:08.376Z,32.00
2023-05-25T03:09:11.534Z,32.00
2023-05-25T03:11:16.198Z,32.00
2023-05-25T03:13:21.995Z,32.00
2023-05-25T03:15:35.787Z,32.10
2023-05-25T03:17:42.250Z,32.30
2023-05-25T03:19:45.335Z,32.50
2023-05-25T03:21:51.275Z,32.50
2023-05-25T03:23:57.548Z,32.40
2023-05-25T03:26:03.611Z,32.20
2023-05-25T03:28:09.833Z,32.10
2023-05-25T03:30:13.218Z,32.10
2023-05-25T03:32:17.964Z,32.10
2023-05-25T03:34:21.071Z,32.20
2023-05-25T03:36:23.858Z,32.20
2023-05-25T03:38:26.840Z,32.40
2023-05-25T03:40:29.819Z,32.40
2023-05-25T03:42:36.893Z,32.60
2023-05-25T03:44:41.197Z,32.50
2023-05-25T03:46:47.654Z,32.60
2023-05-25T03:48:53.435Z,32.60
2023-05-25T03:50:56.662Z,32.60
2023-05-25T03:53:05.904Z,32.60
2023-05-25T03:55:09.105Z,32.60
2023-05-25T03:59:31.748Z,32.40
2023-05-25T04:01:43.709Z,32.40
2023-05-25T04:03:48.011Z,32.50
2023-05-25T04:05:54.117Z,32.60
2023-05-25T04:07:59.168Z,32.80
2023-05-25T04:10:03.261Z,33.10
2023-05-25T04:12:06.173Z,33.30
2023-05-25T04:14:10.272Z,33.40
2023-05-25T04:16:22.259Z,33.40
2023-05-25T04:18:25.224Z,33.30
2023-05-25T04:20:28.180Z,33.40
2023-05-25T04:22:31.222Z,33.60
2023-05-25T04:24:34.444Z,33.50
2023-05-25T04:26:37.411Z,33.50
2023-05-25T04:28:41.153Z,33.70
2023-05-25T04:30:44.434Z,33.70
2023-05-25T04:32:47.504Z,33.80
2023-05-25T04:34:50.974Z,34.00
2023-05-25T04:36:57.219Z,34.10
2023-05-25T04:39:02.908Z,34.30
2023-05-25T04:41:13.286Z,34.40
2023-05-25T04:43:19.294Z,34.20
2023-05-25T04:45:22.553Z,34.20
2023-05-25T04:47:26.049Z,34.10
2023-05-25T04:49:29.676Z,33.90
2023-05-25T04:51:34.488Z,34.10
2023-05-25T04:53:42.104Z,34.10
2023-05-25T04:55:56.905Z,34.20
2023-05-25T04:58:08.782Z,34.30
2023-05-25T05:00:19.196Z,34.50
2023-05-25T05:02:22.410Z,34.60
2023-05-25T05:04:29.930Z,34.50
2023-05-25T05:06:34.164Z,34.40
2023-05-25T05:08:37.231Z,34.40
2023-05-25T05:10:40.091Z,34.30
2023-05-25T05:12:45.591Z,34.30
2023-05-25T05:14:48.548Z,34.50
2023-05-25T05:16:53.690Z,34.60
2023-05-25T05:18:57.047Z,34.60
2023-05-25T05:21:03.039Z,34.60
2023-05-25T05:23:06.302Z,34.60
2023-05-25T05:25:09.304Z,34.60
2023-05-25T05:27:14.987Z,34.70
2023-05-25T05:29:18.140Z,35.00
2023-05-25T05:31:24.405Z,35.00
2023-05-25T05:33:27.885Z,35.00
2023-05-25T05:35:31.002Z,35.20
2023-05-25T05:37:34.984Z,35.20
2023-05-25T05:39:38.360Z,35.20
2023-05-25T05:41:42.424Z,35.00
2023-05-25T05:43:46.111Z,34.90
2023-05-25T05:45:52.271Z,34.70
2023-05-25T05:47:55.546Z,34.70
2023-05-25T05:49:58.850Z,34.90
2023-05-25T05:52:01.904Z,34.70
2023-05-25T05:54:04.831Z,34.60
2023-05-25T05:56:08.025Z,34.60
2023-05-25T05:58:10.816Z,34.60
2023-05-25T06:00:13.751Z,34.60
2023-05-25T06:02:17.381Z,34.50
2023-05-25T06:04:20.278Z,34.60
2023-05-25T06:06:23.066Z,34.80
2023-05-25T06:08:26.346Z,35.10
2023-05-25T06:10:29.272Z,35.50
2023-05-25T06:12:32.070Z,35.50
2023-05-25T06:14:35.308Z,35.60
2023-05-25T06:16:38.291Z,35.80
2023-05-25T06:18:41.694Z,36.00
2023-05-25T06:20:49.752Z,36.00
2023-05-25T06:22:55.492Z,35.80
2023-05-25T06:24:58.509Z,35.70
2023-05-25T06:27:01.738Z,35.40
2023-05-25T06:29:04.649Z,35.30
2023-05-25T06:31:07.523Z,35.30
2023-05-25T06:33:10.492Z,35.40
2023-05-25T06:35:13.518Z,35.50
2023-05-25T06:37:16.418Z,35.30
2023-05-25T06:39:19.152Z,35.20
2023-05-25T06:41:21.926Z,35.20
2023-05-25T06:43:24.720Z,35.00
2023-05-25T06:45:27.460Z,35.20
2023-05-25T06:47:31.348Z,35.50
2023-05-25T06:49:34.159Z,35.70
2023-05-25T06:51:37.117Z,35.90
2023-05-25T06:53:40.104Z,36.00
2023-05-25T06:55:43.081Z,36.10
2023-05-25T06:57:46.078Z,36.00
2023-05-25T06:59:49.148Z,36.20
2023-05-25T07:01:52.042Z,36.20
2023-05-25T07:03:55.062Z,35.80
2023-05-25T07:05:58.234Z,35.60
2023-05-25T07:08:00.957Z,35.40
2023-05-25T07:10:03.942Z,35.30
2023-05-25T07:12:06.942Z,35.20
2023-05-25T07:14:09.751Z,35.00
2023-05-25T07:16:12.736Z,35.00
2023-05-25T07:18:15.688Z,35.00
2023-05-25T07:20:18.609Z,34.90
2023-05-25T07:22:21.409Z,35.10
2023-05-25T07:24:24.114Z,35.40
2023-05-25T07:26:27.432Z,35.70
2023-05-25T07:28:30.214Z,35.70
2023-05-25T07:30:32.998Z,35.70
2023-05-25T07:32:36.083Z,35.70
2023-05-25T07:34:39.315Z,35.80
2023-05-25T07:36:42.101Z,35.60
2023-05-25T07:38:44.854Z,35.40
2023-05-25T07:40:48.287Z,35.30
2023-05-25T07:42:51.005Z,35.10
2023-05-25T07:44:53.889Z,35.00
2023-05-25T07:46:57.139Z,34.90
2023-05-25T07:49:00.208Z,34.80
2023-05-25T07:51:02.963Z,34.80
2023-05-25T07:53:05.984Z,34.80
2023-05-25T07:55:09.152Z,34.60
2023-05-25T07:57:11.984Z,34.60
2023-05-25T07:59:15.036Z,34.50
2023-05-25T08:01:17.897Z,34.60
2023-05-25T08:03:26.236Z,35.00
2023-05-25T08:05:35.003Z,35.30
2023-05-25T08:07:39.456Z,35.60
2023-05-25T08:09:43.352Z,35.70
2023-05-25T08:11:46.334Z,35.90
2023-05-25T08:13:49.385Z,36.00
2023-05-25T08:15:52.126Z,35.90
2023-05-25T08:17:55.221Z,35.70
2023-05-25T08:19:59.093Z,35.70
2023-05-25T08:22:01.878Z,35.70
2023-05-25T08:24:04.802Z,35.70
2023-05-25T08:26:19.089Z,35.90
2023-05-25T08:28:30.968Z,35.90
2023-05-25T08:30:33.945Z,35.80
2023-05-25T08:32:36.772Z,35.80
2023-05-25T08:34:39.488Z,35.80
2023-05-25T08:36:42.244Z,35.50
2023-05-25T08:38:45.419Z,35.00
2023-05-25T08:40:48.126Z,34.70
2023-05-25T08:42:51.120Z,34.50
2023-05-25T08:44:54.130Z,34.20
2023-05-25T08:46:56.846Z,34.10
2023-05-25T08:49:00.055Z,34.00
2023-05-25T08:51:03.194Z,34.00
2023-05-25T08:53:06.005Z,34.00
2023-05-25T08:55:09.261Z,33.90
2023-05-25T08:57:12.166Z,33.80
2023-05-25T08:59:14.889Z,33.20
2023-05-25T09:01:17.859Z,32.40
2023-05-25T09:03:22.000Z,31.70
2023-05-25T09:05:30.794Z,31.60
2023-05-25T09:07:33.811Z,31.50
2023-05-25T09:09:37.500Z,31.70
2023-05-25T09:11:42.228Z,31.80
2023-05-25T09:13:50.745Z,31.30
2023-05-25T09:16:01.742Z,30.60
2023-05-25T09:18:05.424Z,30.10
2023-05-25T09:20:10.828Z,30.10
2023-05-25T09:22:17.205Z,29.90
2023-05-25T09:24:23.340Z,30.30
2023-05-25T09:26:32.395Z,29.80
2023-05-25T09:28:41.131Z,30.20
2023-05-25T09:30:44.443Z,30.10
2023-05-25T09:32:49.350Z,30.00
2023-05-25T09:34:58.409Z,30.30
2023-05-25T09:37:03.232Z,30.40
2023-05-25T09:39:14.636Z,30.80
2023-05-25T09:41:17.835Z,30.80
2023-05-25T09:43:32.845Z,30.60
2023-05-25T09:45:42.718Z,30.40
2023-05-25T09:47:45.751Z,29.80
2023-05-25T09:49:48.527Z,29.80
2023-05-25T09:51:51.658Z,30.10
2023-05-25T09:53:54.630Z,30.20
2023-05-25T09:55:57.568Z,30.30
2023-05-25T09:58:00.482Z,30.40
2023-05-25T10:00:03.694Z,30.20
2023-05-25T10:02:06.869Z,30.30
2023-05-25T10:04:10.104Z,30.10
2023-05-25T10:06:12.952Z,30.30
2023-05-25T10:08:15.785Z,30.20
2023-05-25T10:10:18.912Z,30.30
2023-05-25T10:12:21.823Z,29.70
2023-05-25T10:14:25.895Z,29.40
2023-05-25T10:16:31.151Z,29.20
2023-05-25T10:18:33.931Z,29.20
2023-05-25T10:20:36.724Z,29.00
2023-05-25T10:22:39.714Z,28.90
2023-05-25T10:24:42.606Z,29.10
2023-05-25T10:26:45.519Z,29.70
2023-05-25T10:28:48.943Z,30.00
2023-05-25T10:30:51.736Z,30.10
2023-05-25T10:32:54.544Z,30.20
2023-05-25T10:34:57.820Z,30.30
2023-05-25T10:37:00.620Z,30.30
2023-05-25T10:39:03.402Z,30.20
2023-05-25T10:41:06.434Z,30.30
2023-05-25T10:43:09.774Z,30.20
2023-05-25T10:45:12.530Z,30.10
2023-05-25T10:47:15.406Z,30.00
2023-05-25T10:49:18.497Z,29.80
2023-05-25T10:51:21.209Z,30.00
2023-05-25T10:53:24.047Z,30.10
2023-05-25T10:55:26.942Z,29.90
2023-05-25T10:57:29.755Z,30.10
2023-05-25T10:59:32.835Z,30.00
2023-05-25T11:01:36.722Z,30.00
2023-05-25T11:03:39.638Z,29.90
2023-05-25T11:05:42.767Z,30.00
2023-05-25T11:07:46.450Z,29.90
2023-05-25T11:09:49.188Z,29.90
2023-05-25T11:11:52.508Z,30.00
2023-05-25T11:13:55.386Z,30.00
2023-05-25T11:15:58.172Z,30.00
2023-05-25T11:18:01.221Z,30.00
2023-05-25T11:20:05.723Z,29.90
2023-05-25T11:22:08.482Z,29.90
2023-05-25T11:24:11.313Z,29.90
2023-05-25T11:26:14.254Z,29.70
2023-05-25T11:28:17.099Z,29.90
2023-05-25T11:30:20.114Z,30.00
2023-05-25T11:32:23.007Z,30.00
2023-05-25T11:34:26.358Z,30.00
2023-05-25T11:36:36.792Z,29.90
2023-05-25T11:38:40.861Z,29.90
2023-05-25T11:40:43.750Z,29.90
2023-05-25T11:42:46.790Z,29.90
2023-05-25T11:44:49.677Z,29.80
2023-05-25T11:46:52.543Z,29.90
2023-05-25T11:48:57.559Z,30.00
2023-05-25T11:51:00.279Z,30.00
2023-05-25T11:53:03.016Z,29.90
2023-05-25T11:55:06.303Z,29.80
2023-05-25T11:57:09.310Z,29.70
2023-05-25T11:59:12.016Z,29.80
2023-05-25T12:01:14.941Z,29.70
2023-05-25T12:03:17.774Z,29.60
2023-05-25T12:05:20.564Z,29.70
2023-05-25T12:07:23.495Z,29.80
2023-05-25T12:09:26.499Z,29.80
2023-05-25T12:11:29.291Z,29.90
2023-05-25T12:13:32.232Z,29.80
2023-05-25T12:15:35.355Z,29.70
2023-05-25T12:17:38.222Z,29.60
2023-05-25T12:19:41.002Z,29.50
2023-05-25T12:21:43.859Z,29.50
2023-05-25T12:23:47.095Z,29.60
2023-05-25T12:25:51.180Z,29.70
2023-05-25T12:27:54.349Z,29.70
2023-05-25T12:29:57.716Z,29.80
2023-05-25T12:32:00.949Z,29.80
2023-05-25T12:34:03.706Z,29.60
2023-05-25T12:36:06.451Z,29.70
2023-05-25T12:38:09.796Z,29.70
2023-05-25T12:40:14.603Z,29.60
2023-05-25T12:42:19.863Z,29.60
2023-05-25T12:44:23.068Z,29.70
2023-05-25T12:46:27.638Z,29.60
2023-05-25T12:48:30.487Z,29.60
2023-05-25T12:50:33.496Z,29.60
2023-05-25T12:52:36.228Z,29.50
2023-05-25T12:54:39.062Z,29.60
2023-05-25T12:56:41.989Z,29.70
2023-05-25T12:58:44.697Z,29.60
2023-05-25T13:00:48.384Z,29.60
2023-05-25T13:02:51.230Z,29.50
2023-05-25T13:04:54.068Z,29.50
2023-05-25T13:06:56.897Z,29.50
2023-05-25T13:08:59.860Z,29.60
2023-05-25T13:11:02.602Z,29.60
2023-05-25T13:13:05.391Z,29.60
2023-05-25T13:15:08.512Z,29.60
2023-05-25T13:17:11.370Z,29.50
2023-05-25T13:19:14.243Z,29.50
2023-05-25T13:21:17.909Z,29.50
2023-05-25T13:23:20.597Z,29.40
2023-05-25T13:25:23.773Z,29.30
2023-05-25T13:27:26.806Z,29.40
2023-05-25T13:29:29.614Z,29.40
2023-05-25T13:31:32.545Z,29.50
2023-05-25T13:33:35.389Z,29.50
2023-05-25T13:35:38.331Z,29.60
2023-05-25T13:37:41.096Z,29.60
2023-05-25T13:39:45.534Z,29.50
2023-05-25T13:41:48.270Z,29.50
2023-05-25T13:43:51.232Z,29.50
2023-05-25T13:45:54.017Z,29.60
2023-05-25T13:47:56.911Z,29.50
2023-05-25T13:49:59.818Z,29.60
2023-05-25T13:52:02.849Z,29.50
2023-05-25T13:54:05.636Z,29.50
2023-05-25T13:56:08.819Z,29.50
2023-05-25T13:58:11.667Z,29.50
2023-05-25T14:00:14.350Z,29.50
2023-05-25T14:02:17.374Z,29.40
2023-05-25T14:04:20.987Z,29.40
2023-05-25T14:06:23.695Z,29.50
2023-05-25T14:08:26.448Z,29.50
2023-05-25T14:10:29.368Z,29.40
2023-05-25T14:12:32.001Z,29.40
2023-05-25T14:14:34.739Z,29.40
2023-05-25T14:16:38.020Z,29.30
2023-05-25T14:18:40.854Z,29.30
2023-05-25T14:20:43.889Z,29.40
2023-05-25T14:22:46.905Z,29.40
2023-05-25T14:24:49.613Z,29.40
2023-05-25T14:26:52.708Z,29.30
2023-05-25T14:28:55.516Z,29.20
2023-05-25T14:30:58.197Z,29.30
2023-05-25T14:33:01.541Z,29.30
2023-05-25T14:35:04.654Z,29.20
2023-05-25T14:37:07.601Z,29.10
2023-05-25T14:39:13.317Z,29.10
2023-05-25T14:41:17.213Z,29.10
2023-05-25T14:43:19.900Z,29.10
2023-05-25T14:45:22.829Z,29.10
2023-05-25T14:47:25.751Z,29.10
2023-05-25T14:49:28.612Z,29.20
2023-05-25T14:51:31.388Z,29.20
2023-05-25T14:53:34.304Z,29.20
2023-05-25T14:55:37.050Z,29.10
2023-05-25T14:57:39.890Z,29.10
2023-05-25T14:59:42.950Z,29.10
2023-05-25T15:01:45.779Z,29.20
2023-05-25T15:03:48.799Z,29.20
2023-05-25T15:05:51.668Z,29.10
2023-05-25T15:07:54.541Z,29.10
2023-05-25T15:09:57.620Z,29.20
2023-05-25T15:12:00.569Z,29.20
2023-05-25T15:14:03.428Z,29.20
2023-05-25T15:16:06.576Z,29.10
2023-05-25T15:18:09.701Z,29.10
2023-05-25T15:20:12.511Z,29.10
2023-05-25T15:22:15.839Z,29.00
2023-05-25T15:24:18.709Z,29.10
2023-05-25T15:26:21.426Z,29.00
2023-05-25T15:28:24.339Z,29.10
2023-05-25T15:30:27.201Z,29.10
2023-05-25T15:32:29.965Z,29.10
2023-05-25T15:34:33.015Z,29.10
2023-05-25T15:36:36.039Z,29.00
2023-05-25T15:38:38.725Z,29.00
2023-05-25T15:40:41.588Z,29.10
2023-05-25T15:42:44.647Z,29.10
2023-05-25T15:44:47.328Z,29.10
2023-05-25T15:46:50.339Z,29.10
2023-05-25T15:48:53.378Z,29.00
2023-05-25T15:50:56.044Z,29.10
2023-05-25T15:52:59.026Z,29.10
2023-05-25T15:55:01.797Z,28.90
2023-05-25T15:57:04.572Z,29.00
2023-05-25T15:59:07.606Z,28.90
2023-05-25T16:01:12.485Z,28.80
2023-05-25T16:03:16.588Z,28.70
2023-05-25T16:05:19.625Z,28.80
2023-05-25T16:07:22.558Z,28.90
2023-05-25T16:09:25.337Z,29.00
2023-05-25T16:11:28.088Z,29.00
2023-05-25T16:13:31.160Z,29.00
2023-05-25T16:15:33.954Z,28.60
2023-05-25T16:17:36.656Z,28.30
2023-05-25T16:19:39.427Z,28.00
2023-05-25T16:21:42.174Z,27.70
2023-05-25T16:23:44.889Z,27.60
2023-05-25T16:25:47.786Z,27.40
2023-05-25T16:27:50.480Z,27.70
2023-05-25T16:29:53.269Z,27.40
2023-05-25T16:31:56.315Z,27.30
2023-05-25T16:33:59.099Z,27.10
2023-05-25T16:36:01.849Z,27.10
2023-05-25T16:38:04.673Z,27.30
2023-05-25T16:40:07.406Z,27.30
2023-05-25T16:42:10.230Z,27.20
2023-05-25T16:44:13.187Z,27.40
2023-05-25T16:46:16.088Z,27.50
2023-05-25T16:48:20.300Z,27.50
2023-05-25T16:50:24.443Z,27.40
2023-05-25T16:52:27.099Z,27.50
2023-05-25T16:54:30.407Z,27.40
2023-05-25T16:56:33.213Z,27.50
2023-05-25T16:58:35.915Z,27.30
2023-05-25T17:00:38.644Z,27.10
2023-05-25T17:02:41.496Z,27.10
2023-05-25T17:04:44.565Z,27.20
2023-05-25T17:06:57.320Z,27.20
2023-05-25T17:09:00.129Z,27.30
2023-05-25T17:11:03.036Z,26.80
2023-05-25T17:13:06.151Z,26.80
2023-05-25T17:15:09.414Z,26.90
2023-05-25T17:17:12.106Z,26.80
2023-05-25T17:19:15.171Z,27.00
2023-05-25T17:21:18.060Z,27.20
2023-05-25T17:23:20.894Z,27.20
2023-05-25T17:25:23.819Z,27.20
2023-05-25T17:27:28.854Z,27.00
2023-05-25T17:29:31.665Z,26.90
2023-05-25T17:31:34.405Z,27.00
2023-05-25T17:33:38.856Z,27.20
2023-05-25T17:35:41.936Z,27.20
2023-05-25T17:37:44.730Z,27.20
2023-05-25T17:39:47.675Z,27.00
2023-05-25T17:41:50.342Z,27.20
2023-05-25T17:43:53.238Z,27.20
2023-05-25T17:45:56.131Z,27.40
2023-05-25T17:48:03.049Z,27.40
2023-05-25T17:50:06.082Z,27.40
2023-05-25T17:52:08.936Z,27.40
2023-05-25T17:54:11.601Z,27.40
2023-05-25T17:56:18.650Z,27.30
2023-05-25T17:58:21.638Z,27.20
2023-05-25T18:00:24.440Z,27.20
2023-05-25T18:02:27.559Z,27.40
2023-05-25T18:04:31.694Z,27.40
2023-05-25T18:06:41.698Z,27.40
2023-05-25T18:08:45.285Z,27.40
2023-05-25T18:10:50.046Z,27.40
2023-05-25T18:12:53.751Z,27.40
2023-05-25T18:15:01.073Z,27.20
2023-05-25T18:17:06.965Z,27.30
2023-05-25T18:19:10.145Z,27.20
2023-05-25T18:21:19.486Z,27.30
2023-05-25T18:23:25.607Z,27.20
2023-05-25T18:25:28.437Z,27.20
2023-05-25T18:27:37.569Z,27.20
2023-05-25T18:29:40.874Z,27.20
2023-05-25T18:31:44.376Z,27.30
2023-05-25T18:33:51.882Z,27.20
2023-05-25T18:35:56.290Z,27.20
2023-05-25T18:38:02.786Z,27.30
2023-05-25T18:40:07.037Z,27.40
2023-05-25T18:42:12.418Z,27.40
2023-05-25T18:44:18.871Z,27.40
2023-05-25T18:46:22.712Z,27.30
2023-05-25T18:48:25.965Z,27.30
2023-05-25T18:50:28.697Z,27.30
2023-05-25T18:52:31.520Z,27.30
2023-05-25T18:54:34.560Z,27.30
2023-05-25T18:56:37.286Z,27.40
2023-05-25T18:58:40.091Z,27.40
2023-05-25T19:00:43.057Z,27.30
2023-05-25T19:05:06.399Z,27.40
2023-05-25T19:07:09.403Z,27.30
2023-05-25T19:09:12.116Z,27.30
2023-05-25T19:11:14.933Z,27.30
2023-05-25T19:13:17.898Z,27.30
2023-05-25T19:15:20.733Z,27.30
2023-05-25T19:17:23.651Z,27.20
2023-05-25T19:19:26.442Z,27.30
2023-05-25T19:21:29.452Z,27.30
2023-05-25T19:23:32.294Z,27.30
2023-05-25T19:25:35.217Z,27.40
2023-05-25T19:27:37.973Z,27.20
2023-05-25T19:29:40.831Z,27.30
2023-05-25T19:31:43.763Z,27.20
2023-05-25T19:33:46.602Z,27.10
2023-05-25T19:35:49.509Z,27.00
2023-05-25T19:37:52.393Z,27.00
2023-05-25T19:39:56.314Z,27.10
2023-05-25T19:42:00.594Z,27.00
2023-05-25T19:44:05.681Z,27.00
2023-05-25T19:46:09.975Z,27.10
2023-05-25T19:48:22.342Z,27.20
2023-05-25T19:50:26.122Z,27.20
2023-05-25T19:52:28.933Z,27.20
2023-05-25T19:54:31.861Z,27.10
2023-05-25T19:56:37.657Z,27.10
2023-05-25T19:58:45.747Z,27.20
2023-05-25T20:00:54.759Z,27.20
2023-05-25T20:02:58.345Z,27.20
2023-05-25T20:05:01.080Z,27.10
2023-05-25T20:07:04.012Z,27.10
2023-05-25T20:09:07.025Z,27.10
2023-05-25T20:11:09.657Z,27.00
2023-05-25T20:13:12.370Z,27.00
2023-05-25T20:15:15.333Z,27.00
2023-05-25T20:17:18.433Z,27.00
2023-05-25T20:19:22.913Z,26.90
2023-05-25T20:21:26.282Z,27.00
2023-05-25T20:23:29.086Z,27.00
2023-05-25T20:25:31.984Z,27.00
2023-05-25T20:27:34.907Z,27.10
2023-05-25T20:29:37.610Z,27.00
2023-05-25T20:31:40.682Z,27.00
2023-05-25T20:33:44.509Z,27.10
2023-05-25T20:35:47.612Z,27.10
2023-05-25T20:37:50.749Z,27.20
2023-05-25T20:39:53.829Z,27.20
2023-05-25T20:41:56.599Z,27.20
2023-05-25T20:43:59.279Z,27.10
2023-05-25T20:46:02.163Z,27.10
2023-05-25T20:48:05.043Z,27.10
2023-05-25T20:50:08.173Z,27.10
2023-05-25T20:52:11.219Z,27.10
2023-05-25T20:54:26.279Z,27.00
2023-05-25T20:56:33.866Z,27.00
2023-05-25T20:58:37.092Z,27.10
2023-05-25T21:00:39.792Z,27.10
2023-05-25T21:05:02.263Z,27.10
2023-05-25T21:07:05.032Z,27.10
2023-05-25T21:09:07.917Z,27.10
2023-05-25T21:11:10.686Z,27.10
2023-05-25T21:13:16.958Z,27.00
2023-05-25T21:15:19.970Z,26.90
2023-05-25T21:17:22.972Z,27.00
2023-05-25T21:19:32.143Z,26.90
2023-05-25T21:21:36.021Z,26.90
2023-05-25T21:23:38.933Z,27.00
2023-05-25T21:25:41.868Z,27.00
2023-05-25T21:27:44.870Z,27.00
2023-05-25T21:29:47.795Z,26.90
2023-05-25T21:31:50.556Z,26.90
2023-05-25T21:33:53.455Z,26.70
2023-05-25T21:35:56.606Z,26.80
2023-05-25T21:38:02.154Z,26.80
2023-05-25T21:40:05.119Z,26.90
2023-05-25T21:42:07.899Z,26.90
2023-05-25T21:44:11.121Z,27.00
2023-05-25T21:46:13.951Z,26.90
2023-05-25T21:48:16.903Z,26.90
2023-05-25T21:50:19.646Z,26.80
2023-05-25T21:52:22.641Z,26.90
2023-05-25T21:54:26.636Z,26.80
2023-05-25T21:56:29.319Z,26.80
2023-05-25T21:58:32.159Z,26.80
2023-05-25T22:00:35.968Z,26.90
2023-05-25T22:02:39.046Z,27.00
2023-05-25T22:04:42.071Z,27.00
2023-05-25T22:06:44.822Z,27.00
2023-05-25T22:08:47.620Z,27.00
2023-05-25T22:10:50.515Z,27.00
2023-05-25T22:12:53.531Z,27.00
2023-05-25T22:14:56.354Z,27.10
2023-05-25T22:16:59.220Z,27.00
2023-05-25T22:19:02.157Z,27.00
2023-05-25T22:21:05.151Z,26.90
2023-05-25T22:23:08.564Z,26.90
2023-05-25T22:25:11.502Z,26.90
2023-05-25T22:27:14.240Z,27.00
2023-05-25T22:29:17.330Z,26.90
2023-05-25T22:31:20.507Z,26.90
2023-05-25T22:33:23.451Z,26.90
2023-05-25T22:35:26.299Z,26.80
2023-05-25T22:37:29.461Z,26.90
2023-05-25T22:39:32.256Z,27.00
2023-05-25T22:41:35.286Z,26.80
2023-05-25T22:43:38.262Z,26.90
2023-05-25T22:45:41.161Z,26.80
2023-05-25T22:50:04.829Z,26.80
2023-05-25T22:52:08.396Z,26.90
2023-05-25T22:54:11.203Z,26.90
2023-05-25T22:56:15.104Z,27.00
2023-05-25T23:00:37.939Z,27.00
2023-05-25T23:02:41.287Z,26.90
2023-05-25T23:04:47.144Z,26.90
2023-05-25T23:06:50.601Z,26.90
2023-05-25T23:08:53.711Z,27.00
2023-05-25T23:10:56.419Z,27.00
2023-05-25T23:12:59.351Z,27.00
2023-05-25T23:15:02.282Z,27.00
2023-05-25T23:17:05.325Z,27.00
2023-05-25T23:19:08.218Z,27.00
2023-05-25T23:21:11.509Z,27.00
2023-05-25T23:23:16.062Z,27.10
2023-05-25T23:25:19.729Z,27.10
2023-05-25T23:27:23.009Z,27.10
2023-05-25T23:29:25.744Z,27.00
2023-05-25T23:31:28.743Z,27.00
2023-05-25T23:33:31.653Z,27.00
2023-05-25T23:35:34.383Z,27.00
2023-05-25T23:37:37.159Z,27.10
2023-05-25T23:39:40.084Z,27.10
2023-05-25T23:41:42.799Z,27.20
2023-05-25T23:43:45.580Z,27.20
2023-05-25T23:45:48.607Z,27.30
2023-05-25T23:47:51.940Z,27.30
2023-05-25T23:49:54.738Z,27.40
2023-05-25T23:51:57.732Z,27.40
2023-05-25T23:54:00.498Z,27.50
2023-05-25T23:56:03.628Z,27.50
2023-05-25T23:58:06.794Z,27.40
